sensor_id;sensor_type;location;lat;lon;timestamp;pressure;altitude;pressure_sealevel;temperature;humidity
81057;BME280;70563;50.084;14.468;2023-06-26T00:01:30;98763.47;;;16.27;80.32
81057;BME280;70563;50.084;14.468;2023-06-26T00:03:59;98765.38;;;16.20;80.64
81057;BME280;70563;50.084;14.468;2023-06-26T00:06:25;98764.94;;;16.23;81.02
81057;BME280;70563;50.084;14.468;2023-06-26T00:08:52;98762.59;;;16.33;81.07
81057;BME280;70563;50.084;14.468;2023-06-26T00:11:19;98766.66;;;16.36;80.68
81057;BME280;70563;50.084;14.468;2023-06-26T00:13:44;98768.66;;;16.40;80.40
81057;BME280;70563;50.084;14.468;2023-06-26T00:16:09;98765.19;;;16.40;80.50
81057;BME280;70563;50.084;14.468;2023-06-26T00:18:35;98762.59;;;16.33;80.39
81057;BME280;70563;50.084;14.468;2023-06-26T00:21:00;98765.13;;;16.28;80.64
81057;BME280;70563;50.084;14.468;2023-06-26T00:23:25;98773.91;;;16.28;80.94
81057;BME280;70563;50.084;14.468;2023-06-26T00:25:52;98772.91;;;16.23;81.03
81057;BME280;70563;50.084;14.468;2023-06-26T00:28:18;98771.91;;;16.24;81.15
81057;BME280;70563;50.084;14.468;2023-06-26T00:30:43;98764.19;;;16.16;81.20
81057;BME280;70563;50.084;14.468;2023-06-26T00:33:09;98767.81;;;16.21;81.09
81057;BME280;70563;50.084;14.468;2023-06-26T00:35:34;98767.00;;;16.21;81.45
81057;BME280;70563;50.084;14.468;2023-06-26T00:38:00;98767.97;;;16.26;81.33
81057;BME280;70563;50.084;14.468;2023-06-26T00:40:26;98759.59;;;16.23;81.72
81057;BME280;70563;50.084;14.468;2023-06-26T00:42:52;98759.66;;;16.16;81.85
81057;BME280;70563;50.084;14.468;2023-06-26T00:45:18;98764.22;;;16.09;82.15
81057;BME280;70563;50.084;14.468;2023-06-26T00:47:43;98771.00;;;16.05;82.63
81057;BME280;70563;50.084;14.468;2023-06-26T00:50:09;98775.13;;;16.01;82.40
81057;BME280;70563;50.084;14.468;2023-06-26T00:52:34;98757.94;;;16.03;81.78
81057;BME280;70563;50.084;14.468;2023-06-26T00:55:00;98771.81;;;16.05;82.17
81057;BME280;70563;50.084;14.468;2023-06-26T00:57:26;98762.59;;;16.08;82.50
81057;BME280;70563;50.084;14.468;2023-06-26T00:59:52;98768.34;;;16.05;82.67
81057;BME280;70563;50.084;14.468;2023-06-26T01:02:17;98766.72;;;16.04;82.87
81057;BME280;70563;50.084;14.468;2023-06-26T01:04:49;98765.75;;;16.23;82.12
81057;BME280;70563;50.084;14.468;2023-06-26T01:07:16;98761.25;;;16.24;82.10
81057;BME280;70563;50.084;14.468;2023-06-26T01:09:45;98768.47;;;16.17;82.44
81057;BME280;70563;50.084;14.468;2023-06-26T01:12:11;98759.53;;;16.04;82.67
81057;BME280;70563;50.084;14.468;2023-06-26T01:14:36;98767.38;;;15.99;83.52
81057;BME280;70563;50.084;14.468;2023-06-26T01:17:02;98762.69;;;15.95;83.34
81057;BME280;70563;50.084;14.468;2023-06-26T01:19:30;98749.66;;;15.87;83.56
81057;BME280;70563;50.084;14.468;2023-06-26T01:24:44;98741.81;;;15.92;83.55
81057;BME280;70563;50.084;14.468;2023-06-26T01:27:11;98746.75;;;15.88;83.57
81057;BME280;70563;50.084;14.468;2023-06-26T01:29:37;98746.00;;;15.81;84.08
81057;BME280;70563;50.084;14.468;2023-06-26T01:32:04;98751.16;;;15.76;84.35
81057;BME280;70563;50.084;14.468;2023-06-26T01:34:30;98746.69;;;15.70;84.46
81057;BME280;70563;50.084;14.468;2023-06-26T01:36:55;98739.34;;;15.65;84.61
81057;BME280;70563;50.084;14.468;2023-06-26T01:39:21;98743.03;;;15.64;85.13
81057;BME280;70563;50.084;14.468;2023-06-26T01:41:46;98735.69;;;15.53;85.30
81057;BME280;70563;50.084;14.468;2023-06-26T01:44:32;98743.44;;;15.61;85.33
81057;BME280;70563;50.084;14.468;2023-06-26T01:47:02;98746.34;;;15.53;85.81
81057;BME280;70563;50.084;14.468;2023-06-26T01:52:21;98747.13;;;15.60;85.47
81057;BME280;70563;50.084;14.468;2023-06-26T01:55:28;98735.88;;;15.58;85.53
81057;BME280;70563;50.084;14.468;2023-06-26T01:57:47;98730.38;;;15.53;85.54
81057;BME280;70563;50.084;14.468;2023-06-26T02:00:14;98738.09;;;15.61;85.26
81057;BME280;70563;50.084;14.468;2023-06-26T02:02:43;98736.59;;;15.78;84.39
81057;BME280;70563;50.084;14.468;2023-06-26T02:05:08;98735.19;;;15.76;83.98
81057;BME280;70563;50.084;14.468;2023-06-26T02:07:34;98736.34;;;15.87;83.15
81057;BME280;70563;50.084;14.468;2023-06-26T02:09:59;98725.69;;;15.87;82.86
81057;BME280;70563;50.084;14.468;2023-06-26T02:12:25;98723.66;;;15.82;83.28
81057;BME280;70563;50.084;14.468;2023-06-26T02:14:50;98733.69;;;15.80;82.95
81057;BME280;70563;50.084;14.468;2023-06-26T02:17:16;98724.47;;;15.83;82.66
81057;BME280;70563;50.084;14.468;2023-06-26T02:19:41;98726.16;;;15.77;82.20
81057;BME280;70563;50.084;14.468;2023-06-26T02:22:15;98727.41;;;15.74;82.34
81057;BME280;70563;50.084;14.468;2023-06-26T02:24:42;98729.41;;;15.79;82.33
81057;BME280;70563;50.084;14.468;2023-06-26T02:27:08;98727.88;;;15.65;82.48
81057;BME280;70563;50.084;14.468;2023-06-26T02:29:33;98731.41;;;15.52;83.02
81057;BME280;70563;50.084;14.468;2023-06-26T02:31:58;98727.38;;;15.43;83.00
81057;BME280;70563;50.084;14.468;2023-06-26T02:34:24;98725.53;;;15.43;83.24
81057;BME280;70563;50.084;14.468;2023-06-26T02:36:49;98730.59;;;15.51;83.37
81057;BME280;70563;50.084;14.468;2023-06-26T02:39:14;98730.78;;;15.50;83.42
81057;BME280;70563;50.084;14.468;2023-06-26T02:41:40;98727.56;;;15.41;84.19
81057;BME280;70563;50.084;14.468;2023-06-26T02:44:05;98730.88;;;15.37;85.25
81057;BME280;70563;50.084;14.468;2023-06-26T02:46:32;98738.25;;;15.35;84.97
81057;BME280;70563;50.084;14.468;2023-06-26T02:48:58;98730.06;;;15.36;84.61
81057;BME280;70563;50.084;14.468;2023-06-26T02:51:24;98731.72;;;15.37;84.73
81057;BME280;70563;50.084;14.468;2023-06-26T02:53:49;98726.34;;;15.44;84.64
81057;BME280;70563;50.084;14.468;2023-06-26T02:56:14;98727.19;;;15.38;85.25
81057;BME280;70563;50.084;14.468;2023-06-26T02:58:39;98730.50;;;15.33;84.93
81057;BME280;70563;50.084;14.468;2023-06-26T03:01:05;98734.81;;;15.27;85.46
81057;BME280;70563;50.084;14.468;2023-06-26T03:03:30;98730.22;;;15.41;83.68
81057;BME280;70563;50.084;14.468;2023-06-26T03:05:56;98733.19;;;15.58;83.08
81057;BME280;70563;50.084;14.468;2023-06-26T03:08:22;98729.88;;;15.76;81.70
81057;BME280;70563;50.084;14.468;2023-06-26T03:10:47;98731.44;;;15.84;81.30
81057;BME280;70563;50.084;14.468;2023-06-26T03:13:12;98723.03;;;15.87;81.02
81057;BME280;70563;50.084;14.468;2023-06-26T03:15:38;98734.72;;;15.86;80.98
81057;BME280;70563;50.084;14.468;2023-06-26T03:18:03;98733.09;;;15.85;81.08
81057;BME280;70563;50.084;14.468;2023-06-26T03:20:28;98725.66;;;15.93;80.73
81057;BME280;70563;50.084;14.468;2023-06-26T03:22:54;98721.88;;;16.01;80.63
81057;BME280;70563;50.084;14.468;2023-06-26T03:25:19;98735.69;;;16.16;80.04
81057;BME280;70563;50.084;14.468;2023-06-26T03:27:44;98725.34;;;16.26;78.86
81057;BME280;70563;50.084;14.468;2023-06-26T03:30:10;98726.25;;;16.39;78.04
81057;BME280;70563;50.084;14.468;2023-06-26T03:32:36;98722.34;;;16.41;77.53
81057;BME280;70563;50.084;14.468;2023-06-26T03:35:01;98723.56;;;16.45;77.59
81057;BME280;70563;50.084;14.468;2023-06-26T03:37:28;98721.53;;;16.41;78.01
81057;BME280;70563;50.084;14.468;2023-06-26T03:39:54;98716.25;;;16.34;78.08
81057;BME280;70563;50.084;14.468;2023-06-26T03:42:19;98722.78;;;16.38;77.88
81057;BME280;70563;50.084;14.468;2023-06-26T03:44:44;98723.75;;;16.44;77.82
81057;BME280;70563;50.084;14.468;2023-06-26T03:47:10;98723.59;;;16.39;77.69
81057;BME280;70563;50.084;14.468;2023-06-26T03:49:35;98726.41;;;16.44;77.81
81057;BME280;70563;50.084;14.468;2023-06-26T03:52:00;98728.94;;;16.39;78.30
81057;BME280;70563;50.084;14.468;2023-06-26T03:54:26;98726.88;;;16.41;78.41
81057;BME280;70563;50.084;14.468;2023-06-26T03:56:51;98727.22;;;16.44;78.01
81057;BME280;70563;50.084;14.468;2023-06-26T03:59:17;98726.56;;;16.49;78.12
81057;BME280;70563;50.084;14.468;2023-06-26T04:01:42;98723.91;;;16.49;77.92
81057;BME280;70563;50.084;14.468;2023-06-26T04:04:07;98720.81;;;16.52;78.36
81057;BME280;70563;50.084;14.468;2023-06-26T04:06:33;98721.56;;;16.59;77.36
81057;BME280;70563;50.084;14.468;2023-06-26T04:08:58;98726.66;;;16.61;77.71
81057;BME280;70563;50.084;14.468;2023-06-26T04:11:24;98723.94;;;16.67;77.45
81057;BME280;70563;50.084;14.468;2023-06-26T04:13:50;98724.53;;;16.69;77.22
81057;BME280;70563;50.084;14.468;2023-06-26T04:16:15;98730.25;;;16.73;77.02
81057;BME280;70563;50.084;14.468;2023-06-26T04:18:41;98729.16;;;16.80;76.54
81057;BME280;70563;50.084;14.468;2023-06-26T04:21:11;98721.81;;;16.94;75.75
81057;BME280;70563;50.084;14.468;2023-06-26T04:23:38;98726.91;;;17.14;74.74
81057;BME280;70563;50.084;14.468;2023-06-26T04:26:07;98720.13;;;17.30;73.99
81057;BME280;70563;50.084;14.468;2023-06-26T04:28:33;98728.44;;;17.52;73.19
81057;BME280;70563;50.084;14.468;2023-06-26T04:31:00;98722.28;;;17.82;72.67
81057;BME280;70563;50.084;14.468;2023-06-26T04:33:26;98727.91;;;18.03;71.76
81057;BME280;70563;50.084;14.468;2023-06-26T04:35:52;98724.81;;;18.18;70.55
81057;BME280;70563;50.084;14.468;2023-06-26T04:38:18;98730.84;;;18.37;70.08
81057;BME280;70563;50.084;14.468;2023-06-26T04:40:44;98729.91;;;18.43;69.41
81057;BME280;70563;50.084;14.468;2023-06-26T04:43:09;98728.75;;;18.51;69.51
81057;BME280;70563;50.084;14.468;2023-06-26T04:45:35;98724.44;;;18.50;69.55
81057;BME280;70563;50.084;14.468;2023-06-26T04:48:00;98724.09;;;18.58;69.35
81057;BME280;70563;50.084;14.468;2023-06-26T04:50:26;98727.47;;;18.53;69.44
81057;BME280;70563;50.084;14.468;2023-06-26T04:52:56;98722.94;;;18.54;69.90
81057;BME280;70563;50.084;14.468;2023-06-26T04:55:24;98718.75;;;18.58;69.58
81057;BME280;70563;50.084;14.468;2023-06-26T04:57:50;98719.81;;;18.57;69.93
81057;BME280;70563;50.084;14.468;2023-06-26T05:00:15;98719.31;;;18.60;69.06
81057;BME280;70563;50.084;14.468;2023-06-26T05:02:41;98711.31;;;18.72;68.67
81057;BME280;70563;50.084;14.468;2023-06-26T05:05:07;98717.81;;;18.88;68.20
81057;BME280;70563;50.084;14.468;2023-06-26T05:07:32;98724.53;;;18.90;67.69
81057;BME280;70563;50.084;14.468;2023-06-26T05:09:58;98721.75;;;18.85;68.42
81057;BME280;70563;50.084;14.468;2023-06-26T05:12:23;98714.09;;;18.65;68.97
81057;BME280;70563;50.084;14.468;2023-06-26T05:14:48;98713.28;;;18.76;68.52
81057;BME280;70563;50.084;14.468;2023-06-26T05:17:14;98714.97;;;18.94;67.74
81057;BME280;70563;50.084;14.468;2023-06-26T05:19:40;98706.78;;;19.13;67.02
81057;BME280;70563;50.084;14.468;2023-06-26T05:22:06;98706.59;;;19.60;65.70
81057;BME280;70563;50.084;14.468;2023-06-26T05:24:38;98716.97;;;20.18;63.44
81057;BME280;70563;50.084;14.468;2023-06-26T05:27:04;98714.31;;;20.74;61.45
81057;BME280;70563;50.084;14.468;2023-06-26T05:29:31;98711.47;;;21.51;59.07
81057;BME280;70563;50.084;14.468;2023-06-26T05:31:56;98709.22;;;22.35;55.80
81057;BME280;70563;50.084;14.468;2023-06-26T05:34:25;98717.84;;;22.84;54.21
81057;BME280;70563;50.084;14.468;2023-06-26T05:36:57;98716.34;;;22.56;54.60
81057;BME280;70563;50.084;14.468;2023-06-26T05:39:23;98703.94;;;22.97;53.95
81057;BME280;70563;50.084;14.468;2023-06-26T05:41:50;98701.91;;;23.40;52.50
81057;BME280;70563;50.084;14.468;2023-06-26T05:44:15;98712.34;;;23.21;52.52
81057;BME280;70563;50.084;14.468;2023-06-26T05:46:40;98704.69;;;23.86;50.58
81057;BME280;70563;50.084;14.468;2023-06-26T05:49:06;98705.50;;;24.02;49.76
81057;BME280;70563;50.084;14.468;2023-06-26T05:51:32;98697.16;;;25.04;47.22
81057;BME280;70563;50.084;14.468;2023-06-26T05:53:57;98703.97;;;24.86;47.02
81057;BME280;70563;50.084;14.468;2023-06-26T05:56:23;98700.94;;;25.08;46.34
81057;BME280;70563;50.084;14.468;2023-06-26T05:58:49;98707.97;;;24.99;46.07
81057;BME280;70563;50.084;14.468;2023-06-26T06:01:15;98708.56;;;24.96;45.70
81057;BME280;70563;50.084;14.468;2023-06-26T06:03:41;98705.72;;;25.32;44.65
81057;BME280;70563;50.084;14.468;2023-06-26T06:06:06;98703.50;;;26.41;41.58
81057;BME280;70563;50.084;14.468;2023-06-26T06:08:32;98701.53;;;27.43;39.26
81057;BME280;70563;50.084;14.468;2023-06-26T06:10:59;98696.59;;;28.15;37.53
81057;BME280;70563;50.084;14.468;2023-06-26T06:13:24;98703.22;;;28.23;37.30
81057;BME280;70563;50.084;14.468;2023-06-26T06:15:50;98698.97;;;28.36;37.54
81057;BME280;70563;50.084;14.468;2023-06-26T06:18:15;98705.16;;;27.14;39.41
81057;BME280;70563;50.084;14.468;2023-06-26T06:20:41;98708.47;;;27.49;38.33
81057;BME280;70563;50.084;14.468;2023-06-26T06:23:06;98708.56;;;27.44;38.90
81057;BME280;70563;50.084;14.468;2023-06-26T06:25:31;98693.84;;;28.48;36.67
81057;BME280;70563;50.084;14.468;2023-06-26T06:27:57;98695.44;;;29.68;34.29
81057;BME280;70563;50.084;14.468;2023-06-26T06:30:22;98697.41;;;29.98;33.46
81057;BME280;70563;50.084;14.468;2023-06-26T06:32:48;98686.84;;;30.99;32.05
81057;BME280;70563;50.084;14.468;2023-06-26T06:35:19;98697.56;;;30.87;31.54
81057;BME280;70563;50.084;14.468;2023-06-26T06:37:44;98691.03;;;32.18;29.16
81057;BME280;70563;50.084;14.468;2023-06-26T06:40:10;98698.00;;;30.40;32.16
81057;BME280;70563;50.084;14.468;2023-06-26T06:42:36;98690.13;;;29.13;34.39
81057;BME280;70563;50.084;14.468;2023-06-26T06:45:05;98694.09;;;30.64;31.91
81057;BME280;70563;50.084;14.468;2023-06-26T06:47:34;98695.06;;;29.61;33.81
81057;BME280;70563;50.084;14.468;2023-06-26T06:50:00;98695.25;;;29.64;33.71
81057;BME280;70563;50.084;14.468;2023-06-26T06:52:35;98688.66;;;29.43;33.64
81057;BME280;70563;50.084;14.468;2023-06-26T06:55:00;98690.84;;;29.55;33.31
81057;BME280;70563;50.084;14.468;2023-06-26T06:57:30;98684.00;;;30.02;32.63
81057;BME280;70563;50.084;14.468;2023-06-26T06:59:56;98684.28;;;30.54;32.12
81057;BME280;70563;50.084;14.468;2023-06-26T07:02:21;98691.28;;;30.86;31.02
81057;BME280;70563;50.084;14.468;2023-06-26T07:04:46;98689.13;;;31.23;30.49
81057;BME280;70563;50.084;14.468;2023-06-26T07:07:12;98682.59;;;33.59;26.81
81057;BME280;70563;50.084;14.468;2023-06-26T07:09:38;98683.03;;;34.73;25.48
81057;BME280;70563;50.084;14.468;2023-06-26T07:12:04;98679.97;;;34.16;26.04
81057;BME280;70563;50.084;14.468;2023-06-26T07:14:30;98687.56;;;31.83;29.26
81057;BME280;70563;50.084;14.468;2023-06-26T07:16:56;98677.44;;;28.94;34.41
81057;BME280;70563;50.084;14.468;2023-06-26T07:19:21;98671.50;;;31.64;29.47
81057;BME280;70563;50.084;14.468;2023-06-26T07:21:46;98669.09;;;32.53;28.79
81057;BME280;70563;50.084;14.468;2023-06-26T07:24:12;98661.53;;;34.62;25.19
81057;BME280;70563;50.084;14.468;2023-06-26T07:26:37;98668.63;;;33.10;27.41
81057;BME280;70563;50.084;14.468;2023-06-26T07:29:03;98669.28;;;32.47;27.40
81057;BME280;70563;50.084;14.468;2023-06-26T07:31:29;98660.53;;;32.07;27.82
81057;BME280;70563;50.084;14.468;2023-06-26T07:33:54;98665.75;;;33.27;25.89
81057;BME280;70563;50.084;14.468;2023-06-26T07:36:19;98658.09;;;34.65;24.16
81057;BME280;70563;50.084;14.468;2023-06-26T07:38:45;98666.47;;;35.34;23.45
81057;BME280;70563;50.084;14.468;2023-06-26T07:41:10;98657.63;;;34.88;23.77
81057;BME280;70563;50.084;14.468;2023-06-26T07:43:36;98668.00;;;32.45;26.59
81057;BME280;70563;50.084;14.468;2023-06-26T07:46:01;98665.03;;;32.12;27.49
81057;BME280;70563;50.084;14.468;2023-06-26T07:48:26;98651.22;;;30.47;30.33
81057;BME280;70563;50.084;14.468;2023-06-26T07:50:52;98656.41;;;31.75;28.65
81057;BME280;70563;50.084;14.468;2023-06-26T07:53:18;98652.16;;;32.59;26.61
81057;BME280;70563;50.084;14.468;2023-06-26T07:55:43;98661.38;;;34.95;23.73
81057;BME280;70563;50.084;14.468;2023-06-26T07:58:09;98659.66;;;33.51;25.66
81057;BME280;70563;50.084;14.468;2023-06-26T08:00:35;98651.09;;;33.86;24.83
81057;BME280;70563;50.084;14.468;2023-06-26T08:03:00;98647.78;;;34.13;25.11
81057;BME280;70563;50.084;14.468;2023-06-26T08:05:25;98659.31;;;33.86;25.07
81057;BME280;70563;50.084;14.468;2023-06-26T08:07:53;98651.84;;;35.70;22.84
81057;BME280;70563;50.084;14.468;2023-06-26T08:10:19;98652.44;;;35.63;22.45
81057;BME280;70563;50.084;14.468;2023-06-26T08:12:44;98645.66;;;36.33;21.54
81057;BME280;70563;50.084;14.468;2023-06-26T08:15:11;98650.16;;;36.73;21.11
81057;BME280;70563;50.084;14.468;2023-06-26T08:17:37;98647.50;;;36.92;21.21
81057;BME280;70563;50.084;14.468;2023-06-26T08:20:04;98657.25;;;36.10;21.81
81057;BME280;70563;50.084;14.468;2023-06-26T08:22:30;98644.72;;;37.66;20.08
81057;BME280;70563;50.084;14.468;2023-06-26T08:24:55;98652.00;;;38.66;17.98
81057;BME280;70563;50.084;14.468;2023-06-26T08:27:21;98642.63;;;37.40;19.17
81057;BME280;70563;50.084;14.468;2023-06-26T08:29:46;98640.19;;;33.98;23.66
81057;BME280;70563;50.084;14.468;2023-06-26T08:32:11;98639.56;;;35.11;22.12
81057;BME280;70563;50.084;14.468;2023-06-26T08:34:37;98640.03;;;34.89;20.91
81057;BME280;70563;50.084;14.468;2023-06-26T08:37:02;98646.44;;;35.74;19.74
81057;BME280;70563;50.084;14.468;2023-06-26T08:39:27;98641.72;;;35.18;20.99
81057;BME280;70563;50.084;14.468;2023-06-26T08:41:53;98636.97;;;35.71;20.57
81057;BME280;70563;50.084;14.468;2023-06-26T08:44:18;98636.88;;;37.68;17.63
81057;BME280;70563;50.084;14.468;2023-06-26T08:46:50;98641.84;;;35.78;20.03
81057;BME280;70563;50.084;14.468;2023-06-26T08:49:21;98637.03;;;37.56;19.10
81057;BME280;70563;50.084;14.468;2023-06-26T08:51:54;98631.00;;;37.89;18.92
81057;BME280;70563;50.084;14.468;2023-06-26T08:54:25;98631.19;;;39.62;16.98
81057;BME280;70563;50.084;14.468;2023-06-26T08:56:54;98628.13;;;39.68;16.45
81057;BME280;70563;50.084;14.468;2023-06-26T08:59:20;98632.47;;;35.10;21.40
81057;BME280;70563;50.084;14.468;2023-06-26T09:01:46;98617.50;;;38.30;18.80
81057;BME280;70563;50.084;14.468;2023-06-26T09:04:12;98619.44;;;40.54;16.04
81057;BME280;70563;50.084;14.468;2023-06-26T09:06:37;98617.81;;;38.25;17.90
81057;BME280;70563;50.084;14.468;2023-06-26T09:09:04;98615.22;;;39.45;17.01
81057;BME280;70563;50.084;14.468;2023-06-26T09:11:29;98612.41;;;38.55;17.67
81057;BME280;70563;50.084;14.468;2023-06-26T09:13:55;98613.03;;;40.43;16.25
81057;BME280;70563;50.084;14.468;2023-06-26T09:16:26;98607.81;;;37.12;19.38
81057;BME280;70563;50.084;14.468;2023-06-26T09:18:52;98600.63;;;37.85;18.84
81057;BME280;70563;50.084;14.468;2023-06-26T09:21:18;98596.31;;;39.47;17.58
81057;BME280;70563;50.084;14.468;2023-06-26T09:23:44;98595.56;;;40.91;16.04
81057;BME280;70563;50.084;14.468;2023-06-26T09:26:09;98596.53;;;41.34;15.61
81057;BME280;70563;50.084;14.468;2023-06-26T09:28:36;98599.13;;;43.59;13.44
81057;BME280;70563;50.084;14.468;2023-06-26T09:31:07;98595.78;;;43.89;12.94
81057;BME280;70563;50.084;14.468;2023-06-26T09:33:34;98587.34;;;44.00;12.44
81057;BME280;70563;50.084;14.468;2023-06-26T09:36:01;98583.91;;;43.04;13.56
81057;BME280;70563;50.084;14.468;2023-06-26T09:38:27;98582.13;;;43.39;13.72
81057;BME280;70563;50.084;14.468;2023-06-26T09:40:52;98576.09;;;43.58;12.86
81057;BME280;70563;50.084;14.468;2023-06-26T09:43:18;98572.59;;;44.86;12.73
81057;BME280;70563;50.084;14.468;2023-06-26T09:45:44;98571.41;;;43.41;13.32
81057;BME280;70563;50.084;14.468;2023-06-26T09:48:09;98567.06;;;45.16;12.06
81057;BME280;70563;50.084;14.468;2023-06-26T09:50:37;98570.09;;;46.34;10.37
81057;BME280;70563;50.084;14.468;2023-06-26T09:53:11;98558.28;;;45.21;11.84
81057;BME280;70563;50.084;14.468;2023-06-26T09:55:39;98566.53;;;41.50;14.21
81057;BME280;70563;50.084;14.468;2023-06-26T09:58:06;98549.19;;;38.43;16.77
81057;BME280;70563;50.084;14.468;2023-06-26T10:00:31;98553.53;;;41.76;14.56
81057;BME280;70563;50.084;14.468;2023-06-26T10:02:58;98551.13;;;42.46;13.29
81057;BME280;70563;50.084;14.468;2023-06-26T10:05:23;98549.03;;;44.60;11.47
81057;BME280;70563;50.084;14.468;2023-06-26T10:07:49;98540.81;;;42.53;12.01
81057;BME280;70563;50.084;14.468;2023-06-26T10:10:16;98538.06;;;40.62;14.20
81057;BME280;70563;50.084;14.468;2023-06-26T10:12:47;98533.66;;;42.52;12.48
81057;BME280;70563;50.084;14.468;2023-06-26T10:15:13;98537.84;;;44.67;10.91
81057;BME280;70563;50.084;14.468;2023-06-26T10:17:42;98523.13;;;44.66;10.78
81057;BME280;70563;50.084;14.468;2023-06-26T10:20:08;98520.25;;;45.62;10.76
81057;BME280;70563;50.084;14.468;2023-06-26T10:22:44;98523.28;;;45.17;10.01
81057;BME280;70563;50.084;14.468;2023-06-26T10:25:10;98519.84;;;44.37;10.89
81057;BME280;70563;50.084;14.468;2023-06-26T10:27:42;98513.69;;;44.56;10.96
81057;BME280;70563;50.084;14.468;2023-06-26T10:30:16;98508.47;;;43.76;11.28
81057;BME280;70563;50.084;14.468;2023-06-26T10:32:43;98504.84;;;41.89;12.43
81057;BME280;70563;50.084;14.468;2023-06-26T10:35:10;98505.31;;;44.56;11.23
81057;BME280;70563;50.084;14.468;2023-06-26T10:37:51;98501.97;;;44.35;10.59
81057;BME280;70563;50.084;14.468;2023-06-26T10:40:27;98503.44;;;44.46;11.09
81057;BME280;70563;50.084;14.468;2023-06-26T10:43:06;98497.28;;;45.27;10.22
81057;BME280;70563;50.084;14.468;2023-06-26T10:45:35;98492.91;;;44.65;10.45
81057;BME280;70563;50.084;14.468;2023-06-26T10:48:03;98487.19;;;44.41;10.89
81057;BME280;70563;50.084;14.468;2023-06-26T10:50:31;98486.19;;;41.79;13.03
81057;BME280;70563;50.084;14.468;2023-06-26T10:53:15;98486.22;;;39.94;15.08
81057;BME280;70563;50.084;14.468;2023-06-26T10:56:01;98481.84;;;38.74;15.88
81057;BME280;70563;50.084;14.468;2023-06-26T10:58:30;98478.31;;;41.84;13.47
81057;BME280;70563;50.084;14.468;2023-06-26T11:03:39;98472.72;;;41.95;12.62
81057;BME280;70563;50.084;14.468;2023-06-26T11:06:12;98479.97;;;38.51;16.59
81057;BME280;70563;50.084;14.468;2023-06-26T11:08:47;98467.84;;;38.89;16.75
81057;BME280;70563;50.084;14.468;2023-06-26T11:11:13;98463.94;;;41.15;14.03
81057;BME280;70563;50.084;14.468;2023-06-26T11:13:40;98460.69;;;42.59;12.61
81057;BME280;70563;50.084;14.468;2023-06-26T11:16:05;98463.28;;;40.48;14.93
81057;BME280;70563;50.084;14.468;2023-06-26T11:18:31;98471.31;;;40.05;14.17
81057;BME280;70563;50.084;14.468;2023-06-26T11:21:10;98457.63;;;42.18;13.31
81057;BME280;70563;50.084;14.468;2023-06-26T11:23:38;98468.81;;;43.09;11.97
81057;BME280;70563;50.084;14.468;2023-06-26T11:28:38;98463.63;;;44.15;11.31
81057;BME280;70563;50.084;14.468;2023-06-26T11:31:04;98448.56;;;40.30;14.06
81057;BME280;70563;50.084;14.468;2023-06-26T11:33:29;98455.31;;;42.02;12.50
81057;BME280;70563;50.084;14.468;2023-06-26T11:35:54;98450.41;;;40.81;13.31
81057;BME280;70563;50.084;14.468;2023-06-26T11:38:19;98454.09;;;41.78;12.04
81057;BME280;70563;50.084;14.468;2023-06-26T11:40:45;98447.19;;;42.61;12.25
81057;BME280;70563;50.084;14.468;2023-06-26T11:43:10;98453.94;;;43.44;11.88
81057;BME280;70563;50.084;14.468;2023-06-26T11:45:35;98438.84;;;44.62;10.01
81057;BME280;70563;50.084;14.468;2023-06-26T11:48:01;98441.59;;;44.66;9.71
81057;BME280;70563;50.084;14.468;2023-06-26T11:50:27;98433.94;;;43.04;11.51
81057;BME280;70563;50.084;14.468;2023-06-26T11:52:54;98427.59;;;44.39;11.15
81057;BME280;70563;50.084;14.468;2023-06-26T11:55:21;98436.09;;;42.68;10.83
81057;BME280;70563;50.084;14.468;2023-06-26T11:57:50;98429.88;;;44.47;10.28
81057;BME280;70563;50.084;14.468;2023-06-26T12:00:16;98427.97;;;44.75;10.17
81057;BME280;70563;50.084;14.468;2023-06-26T12:02:44;98425.31;;;42.84;11.25
81057;BME280;70563;50.084;14.468;2023-06-26T12:05:10;98420.53;;;42.85;11.17
81057;BME280;70563;50.084;14.468;2023-06-26T12:07:36;98412.50;;;42.06;11.52
81057;BME280;70563;50.084;14.468;2023-06-26T12:10:03;98414.75;;;44.48;10.27
81057;BME280;70563;50.084;14.468;2023-06-26T12:12:29;98415.97;;;43.72;10.35
81057;BME280;70563;50.084;14.468;2023-06-26T12:14:56;98417.50;;;42.54;11.11
81057;BME280;70563;50.084;14.468;2023-06-26T12:17:23;98409.44;;;42.85;11.75
81057;BME280;70563;50.084;14.468;2023-06-26T12:19:50;98422.53;;;43.47;11.11
81057;BME280;70563;50.084;14.468;2023-06-26T12:22:16;98401.84;;;41.94;12.39
81057;BME280;70563;50.084;14.468;2023-06-26T12:24:42;98412.31;;;42.71;11.67
81057;BME280;70563;50.084;14.468;2023-06-26T12:27:18;98404.06;;;44.43;9.97
81057;BME280;70563;50.084;14.468;2023-06-26T12:29:52;98399.25;;;44.47;10.97
81057;BME280;70563;50.084;14.468;2023-06-26T12:32:20;98400.06;;;44.14;10.26
81057;BME280;70563;50.084;14.468;2023-06-26T12:34:49;98397.22;;;40.32;13.48
81057;BME280;70563;50.084;14.468;2023-06-26T12:37:18;98384.41;;;41.79;12.38
81057;BME280;70563;50.084;14.468;2023-06-26T12:39:53;98388.97;;;38.85;14.93
81057;BME280;70563;50.084;14.468;2023-06-26T12:42:27;98382.59;;;35.98;17.63
81057;BME280;70563;50.084;14.468;2023-06-26T12:44:53;98384.06;;;35.29;18.15
81057;BME280;70563;50.084;14.468;2023-06-26T12:47:26;98374.84;;;35.68;17.82
81057;BME280;70563;50.084;14.468;2023-06-26T12:49:52;98385.06;;;36.03;17.63
81057;BME280;70563;50.084;14.468;2023-06-26T12:52:18;98376.81;;;37.96;15.62
81057;BME280;70563;50.084;14.468;2023-06-26T12:54:45;98366.13;;;36.37;16.94
81057;BME280;70563;50.084;14.468;2023-06-26T12:57:13;98369.84;;;36.64;17.39
81057;BME280;70563;50.084;14.468;2023-06-26T12:59:39;98357.59;;;36.42;17.08